sensor_id;sensor_type;location;lat;lon;timestamp;P1;durP1;ratioP1;P2;durP2;ratioP2
7903;SDS011;3997;48.416;8.512;2023-08-12T00:01:43;4.90;;;4.60;;
7903;SDS011;3997;48.416;8.512;2023-08-12T00:04:09;4.57;;;4.28;;
7903;SDS011;3997;48.416;8.512;2023-08-12T00:06:39;4.68;;;4.38;;
7903;SDS011;3997;48.416;8.512;2023-08-12T00:09:06;4.75;;;4.35;;
7903;SDS011;3997;48.416;8.512;2023-08-12T00:11:32;4.43;;;4.10;;
7903;SDS011;3997;48.416;8.512;2023-08-12T00:13:59;5.82;;;4.40;;
7903;SDS011;3997;48.416;8.512;2023-08-12T00:16:27;4.68;;;4.38;;
7903;SDS011;3997;48.416;8.512;2023-08-12T00:18:53;4.60;;;4.30;;
7903;SDS011;3997;48.416;8.512;2023-08-12T00:21:20;4.68;;;4.28;;
7903;SDS011;3997;48.416;8.512;2023-08-12T00:23:46;4.18;;;3.95;;
7903;SDS011;3997;48.416;8.512;2023-08-12T00:26:14;7.32;;;4.60;;
7903;SDS011;3997;48.416;8.512;2023-08-12T00:28:41;5.00;;;4.45;;
7903;SDS011;3997;48.416;8.512;2023-08-12T00:31:07;4.55;;;4.25;;
7903;SDS011;3997;48.416;8.512;2023-08-12T00:33:35;4.75;;;4.45;;
7903;SDS011;3997;48.416;8.512;2023-08-12T00:36:02;4.65;;;4.30;;
7903;SDS011;3997;48.416;8.512;2023-08-12T00:38:28;5.00;;;4.50;;
7903;SDS011;3997;48.416;8.512;2023-08-12T00:40:55;4.60;;;4.20;;
7903;SDS011;3997;48.416;8.512;2023-08-12T00:43:21;4.70;;;4.40;;
7903;SDS011;3997;48.416;8.512;2023-08-12T00:45:47;4.53;;;4.18;;
7903;SDS011;3997;48.416;8.512;2023-08-12T00:48:14;5.28;;;4.88;;
7903;SDS011;3997;48.416;8.512;2023-08-12T00:50:42;4.85;;;4.55;;
7903;SDS011;3997;48.416;8.512;2023-08-12T00:53:09;6.78;;;4.35;;
7903;SDS011;3997;48.416;8.512;2023-08-12T00:55:36;6.28;;;4.65;;
7903;SDS011;3997;48.416;8.512;2023-08-12T00:58:02;4.80;;;4.40;;
7903;SDS011;3997;48.416;8.512;2023-08-12T01:00:29;4.65;;;4.25;;
7903;SDS011;3997;48.416;8.512;2023-08-12T01:02:56;4.22;;;3.83;;
7903;SDS011;3997;48.416;8.512;2023-08-12T01:05:23;4.43;;;4.13;;
7903;SDS011;3997;48.416;8.512;2023-08-12T01:07:51;4.63;;;4.25;;
7903;SDS011;3997;48.416;8.512;2023-08-12T01:10:18;5.63;;;4.95;;
7903;SDS011;3997;48.416;8.512;2023-08-12T01:12:47;4.72;;;4.32;;
7903;SDS011;3997;48.416;8.512;2023-08-12T01:15:17;5.15;;;4.70;;
7903;SDS011;3997;48.416;8.512;2023-08-12T01:17:45;5.13;;;4.72;;
7903;SDS011;3997;48.416;8.512;2023-08-12T01:20:17;4.65;;;4.35;;
7903;SDS011;3997;48.416;8.512;2023-08-12T01:22:50;4.70;;;4.40;;
7903;SDS011;3997;48.416;8.512;2023-08-12T01:25:20;6.10;;;4.40;;
7903;SDS011;3997;48.416;8.512;2023-08-12T01:27:46;5.20;;;4.90;;
7903;SDS011;3997;48.416;8.512;2023-08-12T01:30:13;5.82;;;4.90;;
7903;SDS011;3997;48.416;8.512;2023-08-12T01:32:42;5.35;;;4.75;;
7903;SDS011;3997;48.416;8.512;2023-08-12T01:35:11;5.18;;;4.72;;
7903;SDS011;3997;48.416;8.512;2023-08-12T01:37:42;6.65;;;4.47;;
7903;SDS011;3997;48.416;8.512;2023-08-12T01:40:09;5.20;;;4.85;;
7903;SDS011;3997;48.416;8.512;2023-08-12T01:42:38;5.32;;;4.90;;
7903;SDS011;3997;48.416;8.512;2023-08-12T01:45:05;5.00;;;4.60;;
7903;SDS011;3997;48.416;8.512;2023-08-12T01:47:32;4.80;;;4.50;;
7903;SDS011;3997;48.416;8.512;2023-08-12T01:49:58;5.38;;;4.97;;
7903;SDS011;3997;48.416;8.512;2023-08-12T01:52:25;4.95;;;4.57;;
7903;SDS011;3997;48.416;8.512;2023-08-12T01:54:51;6.75;;;4.70;;
7903;SDS011;3997;48.416;8.512;2023-08-12T01:57:18;5.43;;;5.07;;
7903;SDS011;3997;48.416;8.512;2023-08-12T01:59:46;5.45;;;5.05;;
7903;SDS011;3997;48.416;8.512;2023-08-12T02:02:12;5.57;;;5.18;;
7903;SDS011;3997;48.416;8.512;2023-08-12T02:04:39;5.50;;;5.10;;
7903;SDS011;3997;48.416;8.512;2023-08-12T02:07:08;4.75;;;4.45;;
7903;SDS011;3997;48.416;8.512;2023-08-12T02:09:34;4.97;;;4.57;;
7903;SDS011;3997;48.416;8.512;2023-08-12T02:12:01;5.30;;;4.80;;
7903;SDS011;3997;48.416;8.512;2023-08-12T02:14:27;5.03;;;4.70;;
7903;SDS011;3997;48.416;8.512;2023-08-12T02:16:55;5.45;;;5.05;;
7903;SDS011;3997;48.416;8.512;2023-08-12T02:19:21;5.68;;;5.28;;
7903;SDS011;3997;48.416;8.512;2023-08-12T02:21:48;5.57;;;5.07;;
7903;SDS011;3997;48.416;8.512;2023-08-12T02:24:14;5.55;;;5.03;;
7903;SDS011;3997;48.416;8.512;2023-08-12T02:26:40;5.25;;;4.85;;
7903;SDS011;3997;48.416;8.512;2023-08-12T02:29:07;5.18;;;4.70;;
7903;SDS011;3997;48.416;8.512;2023-08-12T02:31:33;4.80;;;4.50;;
7903;SDS011;3997;48.416;8.512;2023-08-12T02:34:01;5.25;;;4.70;;
7903;SDS011;3997;48.416;8.512;2023-08-12T02:36:28;5.47;;;4.78;;
7903;SDS011;3997;48.416;8.512;2023-08-12T02:38:55;5.20;;;4.70;;
7903;SDS011;3997;48.416;8.512;2023-08-12T02:41:21;7.80;;;4.95;;
7903;SDS011;3997;48.416;8.512;2023-08-12T02:43:48;5.45;;;4.95;;
7903;SDS011;3997;48.416;8.512;2023-08-12T02:46:14;6.45;;;5.15;;
7903;SDS011;3997;48.416;8.512;2023-08-12T02:48:42;5.55;;;4.93;;
7903;SDS011;3997;48.416;8.512;2023-08-12T02:51:10;5.47;;;4.97;;
7903;SDS011;3997;48.416;8.512;2023-08-12T02:53:37;5.70;;;5.30;;
7903;SDS011;3997;48.416;8.512;2023-08-12T02:56:03;5.72;;;5.15;;
7903;SDS011;3997;48.416;8.512;2023-08-12T02:58:30;5.93;;;5.40;;
7903;SDS011;3997;48.416;8.512;2023-08-12T03:00:56;6.00;;;5.50;;
7903;SDS011;3997;48.416;8.512;2023-08-12T03:03:23;5.78;;;5.30;;
7903;SDS011;3997;48.416;8.512;2023-08-12T03:05:49;4.88;;;4.57;;
7903;SDS011;3997;48.416;8.512;2023-08-12T03:08:17;5.43;;;5.07;;
7903;SDS011;3997;48.416;8.512;2023-08-12T03:10:44;5.30;;;4.90;;
7903;SDS011;3997;48.416;8.512;2023-08-12T03:13:10;5.18;;;4.72;;
7903;SDS011;3997;48.416;8.512;2023-08-12T03:15:38;5.80;;;5.32;;
7903;SDS011;3997;48.416;8.512;2023-08-12T03:18:04;5.38;;;4.65;;
7903;SDS011;3997;48.416;8.512;2023-08-12T03:20:31;5.28;;;4.88;;
7903;SDS011;3997;48.416;8.512;2023-08-12T03:22:57;5.50;;;5.00;;
7903;SDS011;3997;48.416;8.512;2023-08-12T03:25:26;5.70;;;5.30;;
7903;SDS011;3997;48.416;8.512;2023-08-12T03:27:53;5.55;;;5.15;;
7903;SDS011;3997;48.416;8.512;2023-08-12T03:30:19;5.82;;;5.03;;
7903;SDS011;3997;48.416;8.512;2023-08-12T03:32:46;5.40;;;4.90;;
7903;SDS011;3997;48.416;8.512;2023-08-12T03:35:12;5.43;;;5.03;;
7903;SDS011;3997;48.416;8.512;2023-08-12T03:37:38;5.88;;;5.45;;
7903;SDS011;3997;48.416;8.512;2023-08-12T03:40:05;5.95;;;5.35;;
7903;SDS011;3997;48.416;8.512;2023-08-12T03:42:33;6.35;;;5.25;;
7903;SDS011;3997;48.416;8.512;2023-08-12T03:45:00;5.80;;;5.30;;
7903;SDS011;3997;48.416;8.512;2023-08-12T03:47:26;5.35;;;4.95;;
7903;SDS011;3997;48.416;8.512;2023-08-12T03:49:53;5.30;;;4.90;;
7903;SDS011;3997;48.416;8.512;2023-08-12T03:52:19;5.03;;;4.55;;
7903;SDS011;3997;48.416;8.512;2023-08-12T03:54:46;5.50;;;4.97;;
7903;SDS011;3997;48.416;8.512;2023-08-12T03:57:12;5.30;;;4.90;;
7903;SDS011;3997;48.416;8.512;2023-08-12T03:59:40;5.85;;;5.25;;
7903;SDS011;3997;48.416;8.512;2023-08-12T04:02:06;5.30;;;4.80;;
7903;SDS011;3997;48.416;8.512;2023-08-12T04:04:33;5.60;;;5.20;;
7903;SDS011;3997;48.416;8.512;2023-08-12T04:06:59;5.38;;;5.05;;
7903;SDS011;3997;48.416;8.512;2023-08-12T04:09:26;5.32;;;4.90;;
7903;SDS011;3997;48.416;8.512;2023-08-12T04:11:52;5.47;;;5.18;;
7903;SDS011;3997;48.416;8.512;2023-08-12T04:14:19;5.80;;;5.40;;
7903;SDS011;3997;48.416;8.512;2023-08-12T04:16:46;5.75;;;5.28;;
7903;SDS011;3997;48.416;8.512;2023-08-12T04:19:13;5.63;;;5.25;;
7903;SDS011;3997;48.416;8.512;2023-08-12T04:21:39;5.50;;;5.10;;
7903;SDS011;3997;48.416;8.512;2023-08-12T04:24:06;6.00;;;5.60;;
7903;SDS011;3997;48.416;8.512;2023-08-12T04:26:33;5.40;;;4.95;;
7903;SDS011;3997;48.416;8.512;2023-08-12T04:28:59;5.22;;;4.88;;
7903;SDS011;3997;48.416;8.512;2023-08-12T04:31:26;6.20;;;5.70;;
7903;SDS011;3997;48.416;8.512;2023-08-12T04:33:53;5.82;;;5.40;;
7903;SDS011;3997;48.416;8.512;2023-08-12T04:36:20;6.13;;;5.63;;
7903;SDS011;3997;48.416;8.512;2023-08-12T04:38:46;5.22;;;4.82;;
7903;SDS011;3997;48.416;8.512;2023-08-12T04:41:13;5.82;;;5.32;;
7903;SDS011;3997;48.416;8.512;2023-08-12T04:43:39;5.63;;;5.22;;
7903;SDS011;3997;48.416;8.512;2023-08-12T04:46:06;5.85;;;5.03;;
7903;SDS011;3997;48.416;8.512;2023-08-12T04:48:33;5.45;;;4.95;;
7903;SDS011;3997;48.416;8.512;2023-08-12T04:51:01;5.60;;;5.05;;
7903;SDS011;3997;48.416;8.512;2023-08-12T04:53:28;5.50;;;4.80;;
7903;SDS011;3997;48.416;8.512;2023-08-12T04:55:55;5.60;;;5.10;;
7903;SDS011;3997;48.416;8.512;2023-08-12T04:58:21;5.00;;;4.60;;
7903;SDS011;3997;48.416;8.512;2023-08-12T05:00:48;5.20;;;4.80;;
7903;SDS011;3997;48.416;8.512;2023-08-12T05:03:14;5.60;;;5.10;;
7903;SDS011;3997;48.416;8.512;2023-08-12T05:05:41;5.30;;;4.90;;
7903;SDS011;3997;48.416;8.512;2023-08-12T05:08:09;5.57;;;5.18;;
7903;SDS011;3997;48.416;8.512;2023-08-12T05:10:36;5.20;;;4.90;;
7903;SDS011;3997;48.416;8.512;2023-08-12T05:13:02;5.38;;;4.88;;
7903;SDS011;3997;48.416;8.512;2023-08-12T05:15:29;7.82;;;5.05;;
7903;SDS011;3997;48.416;8.512;2023-08-12T05:17:55;4.88;;;4.57;;
7903;SDS011;3997;48.416;8.512;2023-08-12T05:20:21;6.05;;;5.45;;
7903;SDS011;3997;48.416;8.512;2023-08-12T05:22:48;6.05;;;5.65;;
7903;SDS011;3997;48.416;8.512;2023-08-12T05:25:16;5.75;;;5.22;;
7903;SDS011;3997;48.416;8.512;2023-08-12T05:27:42;6.43;;;5.93;;
7903;SDS011;3997;48.416;8.512;2023-08-12T05:30:09;5.97;;;5.47;;
7903;SDS011;3997;48.416;8.512;2023-08-12T05:32:35;6.97;;;5.50;;
7903;SDS011;3997;48.416;8.512;2023-08-12T05:35:02;9.45;;;5.53;;
7903;SDS011;3997;48.416;8.512;2023-08-12T05:37:29;5.93;;;5.43;;
7903;SDS011;3997;48.416;8.512;2023-08-12T05:39:55;5.82;;;5.40;;
7903;SDS011;3997;48.416;8.512;2023-08-12T05:42:23;6.35;;;5.88;;
7903;SDS011;3997;48.416;8.512;2023-08-12T05:44:49;5.90;;;5.40;;
7903;SDS011;3997;48.416;8.512;2023-08-12T05:47:16;6.07;;;5.50;;
7903;SDS011;3997;48.416;8.512;2023-08-12T05:49:42;6.40;;;5.80;;
7903;SDS011;3997;48.416;8.512;2023-08-12T05:52:09;5.80;;;5.30;;
7903;SDS011;3997;48.416;8.512;2023-08-12T05:54:35;5.80;;;5.25;;
7903;SDS011;3997;48.416;8.512;2023-08-12T05:57:01;5.75;;;5.25;;
7903;SDS011;3997;48.416;8.512;2023-08-12T05:59:29;6.35;;;5.75;;
7903;SDS011;3997;48.416;8.512;2023-08-12T06:01:56;5.80;;;5.30;;
7903;SDS011;3997;48.416;8.512;2023-08-12T06:04:22;6.18;;;5.57;;
7903;SDS011;3997;48.416;8.512;2023-08-12T06:06:49;6.32;;;5.82;;
7903;SDS011;3997;48.416;8.512;2023-08-12T06:09:16;6.78;;;6.00;;
7903;SDS011;3997;48.416;8.512;2023-08-12T06:11:43;6.10;;;5.60;;
7903;SDS011;3997;48.416;8.512;2023-08-12T06:14:09;5.90;;;5.40;;
7903;SDS011;3997;48.416;8.512;2023-08-12T06:16:37;6.50;;;5.90;;
7903;SDS011;3997;48.416;8.512;2023-08-12T06:19:03;5.88;;;5.43;;
7903;SDS011;3997;48.416;8.512;2023-08-12T06:21:30;6.35;;;5.85;;
7903;SDS011;3997;48.416;8.512;2023-08-12T06:23:56;6.13;;;5.30;;
7903;SDS011;3997;48.416;8.512;2023-08-12T06:26:23;5.35;;;4.95;;
7903;SDS011;3997;48.416;8.512;2023-08-12T06:28:49;5.97;;;5.38;;
7903;SDS011;3997;48.416;8.512;2023-08-12T06:31:16;5.75;;;5.25;;
7903;SDS011;3997;48.416;8.512;2023-08-12T06:33:43;5.95;;;5.47;;
7903;SDS011;3997;48.416;8.512;2023-08-12T06:36:10;6.20;;;5.70;;
7903;SDS011;3997;48.416;8.512;2023-08-12T06:38:36;5.90;;;5.50;;
7903;SDS011;3997;48.416;8.512;2023-08-12T06:41:03;5.80;;;5.30;;
7903;SDS011;3997;48.416;8.512;2023-08-12T06:43:29;5.60;;;5.10;;
7903;SDS011;3997;48.416;8.512;2023-08-12T06:45:56;5.30;;;4.90;;
7903;SDS011;3997;48.416;8.512;2023-08-12T06:48:22;5.93;;;4.78;;
7903;SDS011;3997;48.416;8.512;2023-08-12T06:50:53;5.05;;;4.68;;
7903;SDS011;3997;48.416;8.512;2023-08-12T06:53:20;4.70;;;4.40;;
7903;SDS011;3997;48.416;8.512;2023-08-12T06:55:47;5.15;;;4.70;;
7903;SDS011;3997;48.416;8.512;2023-08-12T06:58:14;4.97;;;4.47;;
7903;SDS011;3997;48.416;8.512;2023-08-12T07:00:40;5.03;;;4.63;;
7903;SDS011;3997;48.416;8.512;2023-08-12T07:03:07;4.65;;;4.35;;
7903;SDS011;3997;48.416;8.512;2023-08-12T07:05:33;4.90;;;4.50;;
7903;SDS011;3997;48.416;8.512;2023-08-12T07:08:01;4.70;;;4.40;;
7903;SDS011;3997;48.416;8.512;2023-08-12T07:10:27;4.88;;;4.50;;
7903;SDS011;3997;48.416;8.512;2023-08-12T07:12:54;4.90;;;4.50;;
7903;SDS011;3997;48.416;8.512;2023-08-12T07:15:20;5.93;;;4.80;;
7903;SDS011;3997;48.416;8.512;2023-08-12T07:17:47;5.15;;;4.85;;
7903;SDS011;3997;48.416;8.512;2023-08-12T07:20:13;5.35;;;4.95;;
7903;SDS011;3997;48.416;8.512;2023-08-12T07:22:39;8.30;;;5.40;;
7903;SDS011;3997;48.416;8.512;2023-08-12T07:25:08;5.60;;;5.20;;
7903;SDS011;3997;48.416;8.512;2023-08-12T07:27:34;5.68;;;5.18;;
7903;SDS011;3997;48.416;8.512;2023-08-12T07:30:01;5.32;;;4.93;;
7903;SDS011;3997;48.416;8.512;2023-08-12T07:32:28;5.32;;;4.93;;
7903;SDS011;3997;48.416;8.512;2023-08-12T07:34:54;5.25;;;4.85;;
7903;SDS011;3997;48.416;8.512;2023-08-12T07:37:20;5.53;;;5.10;;
7903;SDS011;3997;48.416;8.512;2023-08-12T07:39:47;4.70;;;4.40;;
7903;SDS011;3997;48.416;8.512;2023-08-12T07:42:15;5.18;;;4.88;;
7903;SDS011;3997;48.416;8.512;2023-08-12T07:44:41;4.75;;;4.45;;
7903;SDS011;3997;48.416;8.512;2023-08-12T07:47:07;5.53;;;5.03;;
7903;SDS011;3997;48.416;8.512;2023-08-12T07:49:34;5.18;;;4.85;;
7903;SDS011;3997;48.416;8.512;2023-08-12T07:52:01;4.65;;;4.35;;
7903;SDS011;3997;48.416;8.512;2023-08-12T07:54:27;5.28;;;4.88;;
7903;SDS011;3997;48.416;8.512;2023-08-12T07:56:54;4.88;;;4.57;;
7903;SDS011;3997;48.416;8.512;2023-08-12T07:59:21;4.20;;;3.90;;
7903;SDS011;3997;48.416;8.512;2023-08-12T08:01:48;5.35;;;4.80;;
7903;SDS011;3997;48.416;8.512;2023-08-12T08:04:14;4.35;;;4.05;;
7903;SDS011;3997;48.416;8.512;2023-08-12T08:06:41;4.20;;;4.00;;
7903;SDS011;3997;48.416;8.512;2023-08-12T08:09:07;4.68;;;4.28;;
7903;SDS011;3997;48.416;8.512;2023-08-12T08:11:34;4.38;;;4.00;;
7903;SDS011;3997;48.416;8.512;2023-08-12T08:14:00;4.43;;;4.13;;
7903;SDS011;3997;48.416;8.512;2023-08-12T08:16:28;4.30;;;4.10;;
7903;SDS011;3997;48.416;8.512;2023-08-12T08:18:54;4.43;;;4.13;;
7903;SDS011;3997;48.416;8.512;2023-08-12T08:21:21;4.85;;;4.45;;
7903;SDS011;3997;48.416;8.512;2023-08-12T08:23:47;5.00;;;4.70;;
7903;SDS011;3997;48.416;8.512;2023-08-12T08:26:15;6.00;;;4.55;;
7903;SDS011;3997;48.416;8.512;2023-08-12T08:28:41;5.00;;;4.50;;
7903;SDS011;3997;48.416;8.512;2023-08-12T08:31:08;4.45;;;4.15;;
7903;SDS011;3997;48.416;8.512;2023-08-12T08:33:36;4.55;;;4.25;;
7903;SDS011;3997;48.416;8.512;2023-08-12T08:36:03;9.98;;;5.32;;
7903;SDS011;3997;48.416;8.512;2023-08-12T08:38:30;4.47;;;4.28;;
7903;SDS011;3997;48.416;8.512;2023-08-12T08:40:56;4.93;;;4.63;;
7903;SDS011;3997;48.416;8.512;2023-08-12T08:43:23;4.70;;;4.40;;
7903;SDS011;3997;48.416;8.512;2023-08-12T08:45:53;5.32;;;4.50;;
7903;SDS011;3997;48.416;8.512;2023-08-12T08:48:20;4.40;;;4.10;;
7903;SDS011;3997;48.416;8.512;2023-08-12T08:50:48;4.28;;;3.70;;
7903;SDS011;3997;48.416;8.512;2023-08-12T08:53:16;4.55;;;4.25;;
7903;SDS011;3997;48.416;8.512;2023-08-12T08:55:42;4.68;;;4.38;;
7903;SDS011;3997;48.416;8.512;2023-08-12T08:58:09;4.38;;;4.18;;
7903;SDS011;3997;48.416;8.512;2023-08-12T09:00:36;4.72;;;4.53;;
7903;SDS011;3997;48.416;8.512;2023-08-12T09:03:02;4.40;;;4.10;;
7903;SDS011;3997;48.416;8.512;2023-08-12T09:05:29;4.78;;;4.47;;
7903;SDS011;3997;48.416;8.512;2023-08-12T09:07:57;7.43;;;4.60;;
7903;SDS011;3997;48.416;8.512;2023-08-12T09:10:24;4.25;;;3.90;;
7903;SDS011;3997;48.416;8.512;2023-08-12T09:12:52;4.88;;;4.55;;
7903;SDS011;3997;48.416;8.512;2023-08-12T09:15:19;4.85;;;4.40;;
7903;SDS011;3997;48.416;8.512;2023-08-12T09:17:46;4.63;;;4.32;;
7903;SDS011;3997;48.416;8.512;2023-08-12T09:20:12;4.60;;;4.30;;
7903;SDS011;3997;48.416;8.512;2023-08-12T09:22:39;4.68;;;4.28;;
7903;SDS011;3997;48.416;8.512;2023-08-12T09:25:08;4.43;;;4.07;;
7903;SDS011;3997;48.416;8.512;2023-08-12T09:27:35;4.80;;;4.40;;
7903;SDS011;3997;48.416;8.512;2023-08-12T09:30:02;4.55;;;4.22;;
7903;SDS011;3997;48.416;8.512;2023-08-12T09:32:29;4.60;;;4.30;;
7903;SDS011;3997;48.416;8.512;2023-08-12T09:34:56;4.32;;;3.97;;
7903;SDS011;3997;48.416;8.512;2023-08-12T09:37:23;4.45;;;4.25;;
7903;SDS011;3997;48.416;8.512;2023-08-12T09:39:50;4.40;;;4.00;;
7903;SDS011;3997;48.416;8.512;2023-08-12T09:42:18;4.28;;;3.90;;
7903;SDS011;3997;48.416;8.512;2023-08-12T09:44:45;4.28;;;3.97;;
7903;SDS011;3997;48.416;8.512;2023-08-12T09:47:12;4.60;;;4.30;;
7903;SDS011;3997;48.416;8.512;2023-08-12T09:49:39;4.88;;;4.57;;
7903;SDS011;3997;48.416;8.512;2023-08-12T09:52:06;4.57;;;4.10;;
7903;SDS011;3997;48.416;8.512;2023-08-12T09:54:33;4.53;;;4.22;;
7903;SDS011;3997;48.416;8.512;2023-08-12T09:57:00;4.05;;;3.85;;
7903;SDS011;3997;48.416;8.512;2023-08-12T09:59:29;4.28;;;3.97;;
7903;SDS011;3997;48.416;8.512;2023-08-12T10:01:57;3.90;;;3.70;;
7903;SDS011;3997;48.416;8.512;2023-08-12T10:04:26;3.85;;;3.55;;
7903;SDS011;3997;48.416;8.512;2023-08-12T10:06:53;3.65;;;3.38;;
7903;SDS011;3997;48.416;8.512;2023-08-12T10:09:19;3.95;;;3.75;;
7903;SDS011;3997;48.416;8.512;2023-08-12T10:11:46;3.95;;;3.75;;
7903;SDS011;3997;48.416;8.512;2023-08-12T10:14:13;4.70;;;4.30;;
7903;SDS011;3997;48.416;8.512;2023-08-12T10:16:42;3.78;;;3.58;;
7903;SDS011;3997;48.416;8.512;2023-08-12T10:19:11;3.78;;;3.58;;
7903;SDS011;3997;48.416;8.512;2023-08-12T10:21:38;4.55;;;4.25;;
7903;SDS011;3997;48.416;8.512;2023-08-12T10:24:05;3.97;;;3.78;;
7903;SDS011;3997;48.416;8.512;2023-08-12T10:26:32;4.32;;;4.13;;
7903;SDS011;3997;48.416;8.512;2023-08-12T10:28:59;4.40;;;4.10;;
7903;SDS011;3997;48.416;8.512;2023-08-12T10:31:26;4.40;;;4.10;;
7903;SDS011;3997;48.416;8.512;2023-08-12T10:33:54;4.28;;;4.07;;
7903;SDS011;3997;48.416;8.512;2023-08-12T10:36:21;4.10;;;3.80;;
7903;SDS011;3997;48.416;8.512;2023-08-12T10:38:47;4.10;;;3.90;;
7903;SDS011;3997;48.416;8.512;2023-08-12T10:41:15;4.40;;;4.20;;
7903;SDS011;3997;48.416;8.512;2023-08-12T10:43:48;4.40;;;4.10;;
7903;SDS011;3997;48.416;8.512;2023-08-12T10:46:20;4.30;;;4.00;;
7903;SDS011;3997;48.416;8.512;2023-08-12T10:48:56;4.00;;;3.70;;
7903;SDS011;3997;48.416;8.512;2023-08-12T10:51:38;4.90;;;4.60;;
7903;SDS011;3997;48.416;8.512;2023-08-12T10:57:07;4.40;;;4.07;;
7903;SDS011;3997;48.416;8.512;2023-08-12T10:59:51;3.88;;;3.67;;
7903;SDS011;3997;48.416;8.512;2023-08-12T11:02:19;4.50;;;4.10;;
7903;SDS011;3997;48.416;8.512;2023-08-12T11:04:49;4.88;;;4.45;;
7903;SDS011;3997;48.416;8.512;2023-08-12T11:07:17;6.47;;;4.40;;
7903;SDS011;3997;48.416;8.512;2023-08-12T11:09:43;4.60;;;4.28;;
7903;SDS011;3997;48.416;8.512;2023-08-12T11:12:10;3.88;;;3.50;;
7903;SDS011;3997;48.416;8.512;2023-08-12T11:14:46;3.95;;;3.72;;
7903;SDS011;3997;48.416;8.512;2023-08-12T11:17:13;4.40;;;4.10;;
7903;SDS011;3997;48.416;8.512;2023-08-12T11:19:40;5.15;;;4.00;;
7903;SDS011;3997;48.416;8.512;2023-08-12T11:22:08;4.35;;;4.05;;
7903;SDS011;3997;48.416;8.512;2023-08-12T11:24:37;4.43;;;4.03;;
7903;SDS011;3997;48.416;8.512;2023-08-12T11:27:04;4.70;;;4.40;;
7903;SDS011;3997;48.416;8.512;2023-08-12T11:29:31;4.32;;;4.03;;
7903;SDS011;3997;48.416;8.512;2023-08-12T11:31:57;4.40;;;4.10;;
7903;SDS011;3997;48.416;8.512;2023-08-12T11:34:24;4.82;;;4.43;;
7903;SDS011;3997;48.416;8.512;2023-08-12T11:36:51;4.22;;;3.92;;
7903;SDS011;3997;48.416;8.512;2023-08-12T11:39:19;4.60;;;4.30;;
7903;SDS011;3997;48.416;8.512;2023-08-12T11:41:46;4.45;;;4.15;;
7903;SDS011;3997;48.416;8.512;2023-08-12T11:44:13;4.25;;;4.00;;
7903;SDS011;3997;48.416;8.512;2023-08-12T11:46:41;4.40;;;4.10;;
7903;SDS011;3997;48.416;8.512;2023-08-12T11:49:07;4.28;;;4.07;;
7903;SDS011;3997;48.416;8.512;2023-08-12T11:51:34;4.57;;;4.28;;
7903;SDS011;3997;48.416;8.512;2023-08-12T11:54:01;6.65;;;4.60;;
7903;SDS011;3997;48.416;8.512;2023-08-12T11:56:29;4.20;;;3.90;;
7903;SDS011;3997;48.416;8.512;2023-08-12T11:58:55;5.28;;;4.78;;
7903;SDS011;3997;48.416;8.512;2023-08-12T12:01:22;5.07;;;4.68;;
7903;SDS011;3997;48.416;8.512;2023-08-12T12:03:50;4.68;;;4.20;;
7903;SDS011;3997;48.416;8.512;2023-08-12T12:06:16;4.43;;;4.03;;
7903;SDS011;3997;48.416;8.512;2023-08-12T12:08:43;5.38;;;4.13;;
7903;SDS011;3997;48.416;8.512;2023-08-12T12:11:10;5.93;;;4.72;;
7903;SDS011;3997;48.416;8.512;2023-08-12T12:13:38;4.93;;;4.60;;
7903;SDS011;3997;48.416;8.512;2023-08-12T12:16:09;5.00;;;4.60;;
7903;SDS011;3997;48.416;8.512;2023-08-12T12:18:36;4.43;;;4.10;;
7903;SDS011;3997;48.416;8.512;2023-08-12T12:21:02;4.80;;;4.40;;
7903;SDS011;3997;48.416;8.512;2023-08-12T12:23:29;5.10;;;4.60;;
7903;SDS011;3997;48.416;8.512;2023-08-12T12:25:59;4.60;;;4.22;;
7903;SDS011;3997;48.416;8.512;2023-08-12T12:28:25;4.72;;;4.32;;
7903;SDS011;3997;48.416;8.512;2023-08-12T12:30:53;4.60;;;4.25;;
7903;SDS011;3997;48.416;8.512;2023-08-12T12:33:20;4.88;;;4.47;;
7903;SDS011;3997;48.416;8.512;2023-08-12T12:35:46;5.07;;;4.65;;
7903;SDS011;3997;48.416;8.512;2023-08-12T12:38:13;4.50;;;4.20;;
7903;SDS011;3997;48.416;8.512;2023-08-12T12:40:39;5.05;;;4.55;;
7903;SDS011;3997;48.416;8.512;2023-08-12T12:43:05;4.53;;;4.15;;
7903;SDS011;3997;48.416;8.512;2023-08-12T12:45:32;5.07;;;4.57;;
7903;SDS011;3997;48.416;8.512;2023-08-12T12:48:00;4.45;;;4.03;;
7903;SDS011;3997;48.416;8.512;2023-08-12T12:50:26;4.88;;;4.40;;
7903;SDS011;3997;48.416;8.512;2023-08-12T12:52:52;4.95;;;4.57;;
7903;SDS011;3997;48.416;8.512;2023-08-12T12:55:19;5.10;;;4.47;;
7903;SDS011;3997;48.416;8.512;2023-08-12T12:57:45;4.55;;;4.15;;
7903;SDS011;3997;48.416;8.512;2023-08-12T13:00:12;5.10;;;4.68;;
7903;SDS011;3997;48.416;8.512;2023-08-12T13:02:42;4.70;;;4.40;;
7903;SDS011;3997;48.416;8.512;2023-08-12T13:05:10;5.53;;;4.30;;
7903;SDS011;3997;48.416;8.512;2023-08-12T13:07:37;4.55;;;4.25;;
7903;SDS011;3997;48.416;8.512;2023-08-12T13:10:03;4.97;;;4.53;;
7903;SDS011;3997;48.416;8.512;2023-08-12T13:12:30;4.95;;;4.38;;
7903;SDS011;3997;48.416;8.512;2023-08-12T13:14:56;4.70;;;4.30;;
7903;SDS011;3997;48.416;8.512;2023-08-12T13:17:24;4.80;;;4.40;;
7903;SDS011;3997;48.416;8.512;2023-08-12T13:19:50;4.35;;;4.05;;
7903;SDS011;3997;48.416;8.512;2023-08-12T13:22:18;4.45;;;4.15;;
7903;SDS011;3997;48.416;8.512;2023-08-12T13:24:44;4.38;;;3.97;;
7903;SDS011;3997;48.416;8.512;2023-08-12T13:27:11;4.72;;;4.32;;
7903;SDS011;3997;48.416;8.512;2023-08-12T13:29:38;4.20;;;3.90;;
7903;SDS011;3997;48.416;8.512;2023-08-12T13:32:04;4.28;;;4.00;;
7903;SDS011;3997;48.416;8.512;2023-08-12T13:34:31;4.88;;;3.63;;
7903;SDS011;3997;48.416;8.512;2023-08-12T13:36:57;4.15;;;3.83;;
7903;SDS011;3997;48.416;8.512;2023-08-12T13:39:26;4.15;;;3.85;;
7903;SDS011;3997;48.416;8.512;2023-08-12T13:41:52;4.07;;;3.78;;
7903;SDS011;3997;48.416;8.512;2023-08-12T13:44:20;4.40;;;3.80;;
7903;SDS011;3997;48.416;8.512;2023-08-12T13:46:46;4.05;;;3.75;;
7903;SDS011;3997;48.416;8.512;2023-08-12T13:49:12;5.25;;;3.80;;
7903;SDS011;3997;48.416;8.512;2023-08-12T13:51:39;3.95;;;3.70;;
7903;SDS011;3997;48.416;8.512;2023-08-12T13:54:05;4.07;;;3.70;;
7903;SDS011;3997;48.416;8.512;2023-08-12T13:56:33;4.80;;;4.30;;
7903;SDS011;3997;48.416;8.512;2023-08-12T13:59:00;3.67;;;3.40;;
7903;SDS011;3997;48.416;8.512;2023-08-12T14:01:26;3.80;;;3.60;;
7903;SDS011;3997;48.416;8.512;2023-08-12T14:03:52;3.70;;;3.40;;
7903;SDS011;3997;48.416;8.512;2023-08-12T14:06:19;3.85;;;3.55;;
7903;SDS011;3997;48.416;8.512;2023-08-12T14:08:46;3.40;;;3.17;;
7903;SDS011;3997;48.416;8.512;2023-08-12T14:11:12;3.65;;;3.45;;
7903;SDS011;3997;48.416;8.512;2023-08-12T14:13:40;3.40;;;3.20;;
7903;SDS011;3997;48.416;8.512;2023-08-12T14:16:06;3.58;;;3.38;;
7903;SDS011;3997;48.416;8.512;2023-08-12T14:18:33;3.60;;;3.30;;
7903;SDS011;3997;48.416;8.512;2023-08-12T14:20:59;3.50;;;3.30;;
7903;SDS011;3997;48.416;8.512;2023-08-12T14:23:26;3.50;;;3.30;;
7903;SDS011;3997;48.416;8.512;2023-08-12T14:25:52;3.83;;;3.50;;
7903;SDS011;3997;48.416;8.512;2023-08-12T14:28:19;3.80;;;3.60;;
7903;SDS011;3997;48.416;8.512;2023-08-12T14:30:47;3.85;;;3.65;;
7903;SDS011;3997;48.416;8.512;2023-08-12T14:33:13;4.35;;;3.95;;
7903;SDS011;3997;48.416;8.512;2023-08-12T14:35:39;3.95;;;3.65;;
7903;SDS011;3997;48.416;8.512;2023-08-12T14:38:06;3.60;;;3.40;;
7903;SDS011;3997;48.416;8.512;2023-08-12T14:40:32;4.03;;;3.72;;
7903;SDS011;3997;48.416;8.512;2023-08-12T14:42:59;3.83;;;3.53;;
7903;SDS011;3997;48.416;8.512;2023-08-12T14:45:25;4.53;;;4.13;;
7903;SDS011;3997;48.416;8.512;2023-08-12T14:47:53;4.97;;;4.13;;
7903;SDS011;3997;48.416;8.512;2023-08-12T14:50:19;4.07;;;3.88;;
7903;SDS011;3997;48.416;8.512;2023-08-12T14:52:46;5.50;;;3.80;;
7903;SDS011;3997;48.416;8.512;2023-08-12T14:55:12;3.83;;;3.53;;
7903;SDS011;3997;48.416;8.512;2023-08-12T14:57:39;4.25;;;3.90;;
7903;SDS011;3997;48.416;8.512;2023-08-12T15:00:06;4.28;;;3.97;;
7903;SDS011;3997;48.416;8.512;2023-08-12T15:02:35;5.18;;;4.00;;
7903;SDS011;3997;48.416;8.512;2023-08-12T15:05:03;3.92;;;3.63;;
7903;SDS011;3997;48.416;8.512;2023-08-12T15:07:30;4.43;;;4.13;;
7903;SDS011;3997;48.416;8.512;2023-08-12T15:09:57;4.68;;;4.22;;
7903;SDS011;3997;48.416;8.512;2023-08-12T15:12:24;4.65;;;4.25;;
7903;SDS011;3997;48.416;8.512;2023-08-12T15:14:52;4.22;;;3.90;;
7903;SDS011;3997;48.416;8.512;2023-08-12T15:17:18;4.57;;;4.18;;